Valiant — NA35 — position and weather

sailwx.info

Track history (hours):
 
Tides and Currents Weather Stations Pressure Air Temp Water Temp Dewpoint Dewpoint Depression Visibility Wind Speed Wind Dir Waves Ship Positions

Valiant

Last reported at 2017-Oct-24 22:43 UTC. Time now 2017-Dec-16 03:31 UTC.
Position N 38°59' W 076°29'.
Warning: this ship's position is 52 days out of date.

Length 14 m.

Type: Sailing vessel. MMSI: 369970076.

Date/timePositionNaut miles runAvg speedWind from/ knotsBaromVisibWave heightAir tempDewpointWater temp
2017-Oct-24 22:43N 38°59' W 076°29'0 2.1
2017-Oct-24 22:30N 38°59' W 076°28'1 1.6
2017-Oct-24 22:00N 38°58' W 076°28'0 0.5
2017-Oct-24 21:30N 38°58' W 076°28'0 0.2
2017-Oct-24 21:00N 38°58' W 076°28'1 1.8
2017-Oct-24 20:30N 38°59' W 076°28'1 1.0
2017-Oct-24 20:00N 38°59' W 076°29'0 0.0
2017-Oct-22 18:09N 38°59' W 076°29'1 3.6
2017-Oct-22 18:00N 38°59' W 076°28'3 6.7
2017-Oct-22 17:30N 38°56' W 076°26'0 0.3
2017-Oct-22 17:00N 38°56' W 076°26'1 1.0
2017-Oct-22 16:30N 38°55' W 076°26'0 0.7
2017-Oct-22 16:00N 38°55' W 076°26'1 1.5
2017-Oct-22 15:30N 38°56' W 076°26'0 0.4
2017-Oct-22 15:00N 38°56' W 076°26'0 0.4
2017-Oct-22 14:30N 38°56' W 076°26'1 1.1
2017-Oct-22 14:00N 38°55' W 076°26'3 5.6
2017-Oct-22 13:30N 38°58' W 076°27'2 3.2
2017-Oct-22 13:00N 38°59' W 076°29'0 0.0
2017-Oct-21 17:56N 38°59' W 076°29'2 4.9
2017-Oct-21 17:30N 38°57' W 076°27'2 3.7
2017-Oct-21 17:00N 38°56' W 076°26'1 1.1
2017-Oct-21 16:30N 38°55' W 076°26'0 0.7
2017-Oct-21 15:58N 38°55' W 076°26'0 0.3
2017-Oct-21 15:00N 38°55' W 076°26'1 1.1
2017-Oct-21 14:30N 38°56' W 076°26'4 0.3
2017-Oct-20 22:11N 38°59' W 076°29'0 2.5
2017-Oct-20 22:00N 38°59' W 076°28'0 0.3
2017-Oct-20 21:30N 38°59' W 076°28'0 0.1
2017-Oct-20 21:00N 38°59' W 076°28'0 0.3
2017-Oct-20 20:30N 38°59' W 076°28'1 0.0
2017-Oct-18 22:17N 38°59' W 076°29'1 2.7
2017-Oct-18 22:00N 38°59' W 076°28'3 6.6
2017-Oct-18 21:30N 38°56' W 076°26'1 2.1
2017-Oct-18 21:00N 38°57' W 076°25'3 5.3
2017-Oct-18 20:30N 38°58' W 076°28'1 0.1
2017-Oct-18 13:57N 38°59' W 076°28'0 0.2
2017-Oct-18 13:30N 38°59' W 076°28'  
Track history (hours):
 
Tides and Currents Weather Stations Pressure Air Temp Water Temp Dewpoint Dewpoint Depression Visibility Wind Speed Wind Dir Waves Ship Positions

Valiant

Last reported at 2017-Oct-24 22:43 UTC. Time now 2017-Dec-16 03:31 UTC.
Position N 38°59' W 076°29'.
Warning: this ship's position is 52 days out of date.

Length 14 m.

Type: Sailing vessel. MMSI: 369970076.

Date/timePositionNaut miles runAvg speedWind from/ knotsBaromVisibWave heightAir tempDewpointWater temp
2017-Oct-24 22:43N 38°59' W 076°29'0 2.1
2017-Oct-24 22:30N 38°59' W 076°28'1 1.6
2017-Oct-24 22:00N 38°58' W 076°28'0 0.5
2017-Oct-24 21:30N 38°58' W 076°28'0 0.2
2017-Oct-24 21:00N 38°58' W 076°28'1 1.8
2017-Oct-24 20:30N 38°59' W 076°28'1 1.0
2017-Oct-24 20:00N 38°59' W 076°29'0 0.0
2017-Oct-22 18:09N 38°59' W 076°29'1 3.6
2017-Oct-22 18:00N 38°59' W 076°28'3 6.7
2017-Oct-22 17:30N 38°56' W 076°26'0 0.3
2017-Oct-22 17:00N 38°56' W 076°26'1 1.0
2017-Oct-22 16:30N 38°55' W 076°26'0 0.7
2017-Oct-22 16:00N 38°55' W 076°26'1 1.5
2017-Oct-22 15:30N 38°56' W 076°26'0 0.4
2017-Oct-22 15:00N 38°56' W 076°26'0 0.4
2017-Oct-22 14:30N 38°56' W 076°26'1 1.1
2017-Oct-22 14:00N 38°55' W 076°26'3 5.6
2017-Oct-22 13:30N 38°58' W 076°27'2 3.2
2017-Oct-22 13:00N 38°59' W 076°29'0 0.0
2017-Oct-21 17:56N 38°59' W 076°29'2 4.9
2017-Oct-21 17:30N 38°57' W 076°27'2 3.7
2017-Oct-21 17:00N 38°56' W 076°26'1 1.1
2017-Oct-21 16:30N 38°55' W 076°26'0 0.7
2017-Oct-21 15:58N 38°55' W 076°26'0 0.3
2017-Oct-21 15:00N 38°55' W 076°26'1 1.1
2017-Oct-21 14:30N 38°56' W 076°26'4 0.3
2017-Oct-20 22:11N 38°59' W 076°29'0 2.5
2017-Oct-20 22:00N 38°59' W 076°28'0 0.3
2017-Oct-20 21:30N 38°59' W 076°28'0 0.1
2017-Oct-20 21:00N 38°59' W 076°28'0 0.3
2017-Oct-20 20:30N 38°59' W 076°28'1 0.0
2017-Oct-18 22:17N 38°59' W 076°29'1 2.7
2017-Oct-18 22:00N 38°59' W 076°28'3 6.6
2017-Oct-18 21:30N 38°56' W 076°26'1 2.1
2017-Oct-18 21:00N 38°57' W 076°25'3 5.3
2017-Oct-18 20:30N 38°58' W 076°28'1 0.1
2017-Oct-18 13:57N 38°59' W 076°28'0 0.2
2017-Oct-18 13:30N 38°59' W 076°28'  

Dump ship's entire track history